METAR Data
IDs: Format: Raw Decoded Include TAF

Data at: 0022 UTC 30 May 2020

METAR for:KTVK (Centerville Muni, IA, US)
Text:KTVK 292355Z AUTO 34007KT 10SM CLR 20/11 A3015 RMK AO2
Temperature: 20.0°C ( 68°F)
Dewpoint: 11.0°C ( 52°F) [RH = 56%]
Pressure (altimeter):30.15 inches Hg (1021.1 mb)
Winds:from the NNW (340 degrees) at 8 MPH (7 knots; 3.6 m/s)
Visibility:10 or more sm (16+ km)
Ceiling:at least 12,000 feet AGL
Clouds:sky clear below 12,000 feet AGL
QC Flag:automated observation with no human augmentation